Time;durP1;ratioP1;P1;durP2;ratioP2;P2;SDS_P1;SDS_P2;PMS_P1;PMS_P2;Temp;Humidity;BMP_temperature;BMP_pressure;BME280_temperature;BME280_humidity;BME280_pressure;Samples;Min_cycle;Max_cycle;Signal;HPM_P1;HPM_P2
2020/12/22 00:00:25;;;;;;;3.25;1.77;;;;;;;12.21;100.00;100206.00;10131661;29;20059;-71
2020/12/22 00:05:26;;;;;;;1.27;0.80;;;;;;;12.32;100.00;100181.59;10134891;29;20045;-70
2020/12/22 00:10:27;;;;;;;1.75;0.82;;;;;;;12.38;100.00;100179.47;10129210;29;20056;-70
2020/12/22 00:15:28;;;;;;;2.72;1.20;;;;;;;12.49;100.00;100155.88;10117741;29;20059;-70
2020/12/22 00:20:41;;;;;;;1.50;0.82;;;;;;;12.56;100.00;100145.78;10135286;29;20454;-70
2020/12/22 00:25:45;;;;;;;3.20;0.98;;;;;;;12.73;100.00;100153.56;10133802;29;20127;-70
2020/12/22 00:30:49;;;;;;;2.07;0.97;;;;;;;12.76;100.00;100142.81;10134434;29;20048;-70
2020/12/22 00:35:50;;;;;;;2.60;1.00;;;;;;;12.70;100.00;100121.19;10135337;29;20052;-70
2020/12/22 00:40:51;;;;;;;2.60;1.40;;;;;;;12.76;100.00;100121.66;10117560;29;20048;-70
2020/12/22 00:45:52;;;;;;;2.63;1.08;;;;;;;12.80;100.00;100140.84;10108317;29;20048;-70
2020/12/22 00:51:01;;;;;;;2.97;1.45;;;;;;;12.85;100.00;100147.56;10132938;29;20052;-70
2020/12/22 00:56:04;;;;;;;3.00;1.60;;;;;;;12.88;100.00;100143.88;10119468;29;20128;-70
2020/12/22 01:01:10;;;;;;;3.38;1.80;;;;;;;12.83;100.00;100145.94;10122228;29;20394;-70
2020/12/22 01:06:12;;;;;;;3.08;1.63;;;;;;;12.93;100.00;100163.78;10134545;29;20040;-70
2020/12/22 01:11:13;;;;;;;4.60;1.55;;;;;;;12.89;100.00;100148.19;10142185;29;20052;-70
2020/12/22 01:16:14;;;;;;;3.47;1.15;;;;;;;13.03;100.00;100144.72;10123021;29;20051;-70
2020/12/22 01:21:20;;;;;;;3.25;0.93;;;;;;;12.98;100.00;100118.53;10139957;29;20052;-70
2020/12/22 01:26:23;;;;;;;2.10;0.85;;;;;;;12.90;100.00;100155.19;10130791;29;20069;-70
2020/12/22 01:31:26;;;;;;;1.83;0.80;;;;;;;12.90;100.00;100149.91;10125853;29;20040;-71
2020/12/22 01:36:28;;;;;;;2.35;1.02;;;;;;;12.90;100.00;100145.47;10139722;29;20041;-70
2020/12/22 01:41:36;;;;;;;3.95;1.20;;;;;;;12.89;100.00;100149.03;10141658;29;20490;-70
2020/12/22 01:46:42;;;;;;;5.03;1.20;;;;;;;12.93;100.00;100132.06;10141315;29;20044;-70
2020/12/22 01:51:45;;;;;;;4.35;1.88;;;;;;;12.86;100.00;100140.47;10140968;29;20052;-71
2020/12/22 01:56:46;;;;;;;5.40;1.23;;;;;;;12.86;100.00;100145.75;10140339;29;20067;-70
2020/12/22 02:01:49;;;;;;;5.05;1.65;;;;;;;12.84;100.00;100139.72;10140313;29;20048;-70
2020/12/22 02:06:51;;;;;;;6.07;1.73;;;;;;;12.98;100.00;100144.13;10138462;29;20568;-70
2020/12/22 02:11:52;;;;;;;3.50;1.25;;;;;;;12.80;100.00;100162.00;10139358;29;20064;-70
2020/12/22 02:16:53;;;;;;;4.03;1.38;;;;;;;12.70;100.00;100161.69;10139295;29;20100;-70
2020/12/22 02:21:59;;;;;;;3.88;1.38;;;;;;;12.83;100.00;100164.44;10139376;29;20068;-70
2020/12/22 02:27:01;;;;;;;4.03;1.45;;;;;;;12.81;100.00;100158.38;10139518;29;20044;-70
2020/12/22 02:32:02;;;;;;;6.00;1.80;;;;;;;12.83;100.00;100175.00;10122951;29;20060;-70
2020/12/22 02:37:04;;;;;;;5.72;1.17;;;;;;;12.84;100.00;100160.84;10104763;29;20108;-71
2020/12/22 02:42:05;;;;;;;5.85;1.52;;;;;;;12.72;100.00;100156.31;10139133;29;20045;-70
2020/12/22 02:47:13;;;;;;;3.95;1.35;;;;;;;12.80;100.00;100159.34;10139196;29;20397;-70
2020/12/22 02:52:14;;;;;;;2.38;1.02;;;;;;;12.87;100.00;100172.09;10138520;29;20047;-70
2020/12/22 02:57:15;;;;;;;3.90;1.40;;;;;;;12.84;100.00;100166.16;10138014;29;20047;-70
2020/12/22 03:02:17;;;;;;;6.07;1.63;;;;;;;12.79;100.00;100160.28;10138533;29;20051;-70
2020/12/22 03:07:18;;;;;;;3.50;1.08;;;;;;;12.80;100.00;100176.03;10137388;29;20489;-70
2020/12/22 03:12:19;;;;;;;2.63;0.60;;;;;;;12.82;100.00;100175.94;10137087;29;20489;-70
2020/12/22 03:17:20;;;;;;;2.72;0.90;;;;;;;12.79;100.00;100162.94;10136654;29;20051;-70
2020/12/22 03:22:37;;;;;;;1.52;0.90;;;;;;;12.80;100.00;100162.81;10135943;29;20048;-70
2020/12/22 03:27:39;;;;;;;1.75;0.93;;;;;;;12.83;100.00;100167.09;10121717;29;20053;-70
2020/12/22 03:32:42;;;;;;;2.53;0.85;;;;;;;12.80;100.00;100159.34;10136915;29;20061;-70
2020/12/22 03:37:43;;;;;;;1.88;0.98;;;;;;;12.80;100.00;100157.53;10135048;29;20171;-70
2020/12/22 03:42:44;;;;;;;3.70;0.88;;;;;;;12.91;100.00;100170.09;10136615;29;20416;-70
2020/12/22 03:47:45;;;;;;;1.73;0.68;;;;;;;12.97;100.00;100172.41;10137154;29;20438;-70
2020/12/22 03:53:03;;;;;;;2.95;1.13;;;;;;;13.05;100.00;100169.28;10119679;29;20143;-70
2020/12/22 03:58:04;;;;;;;2.00;0.88;;;;;;;13.04;100.00;100160.50;10120228;29;20056;-70
2020/12/22 04:03:05;;;;;;;1.73;0.82;;;;;;;13.05;100.00;100156.06;10119812;29;20055;-71
2020/12/22 04:08:06;;;;;;;1.98;0.80;;;;;;;13.10;100.00;100154.81;10135728;29;20079;-70
2020/12/22 04:13:07;;;;;;;2.00;1.00;;;;;;;13.04;100.00;100178.16;10136295;29;20052;-70
2020/12/22 04:18:09;;;;;;;2.45;0.70;;;;;;;13.12;100.00;100183.84;10124250;29;20565;-70
2020/12/22 04:23:14;;;;;;;1.92;1.00;;;;;;;13.05;100.00;100174.56;10135542;29;20044;-70
2020/12/22 04:28:15;;;;;;;1.13;0.70;;;;;;;12.93;100.00;100168.22;10135320;29;20049;-70
2020/12/22 04:33:17;;;;;;;1.08;0.70;;;;;;;12.91;100.00;100185.97;10141228;29;20412;-70
2020/12/22 04:38:18;;;;;;;1.65;0.60;;;;;;;12.88;100.00;100194.97;10114904;29;20049;-71
2020/12/22 04:43:19;;;;;;;1.08;0.60;;;;;;;12.98;100.00;100203.16;10137663;29;20040;-71
2020/12/22 04:48:24;;;;;;;2.38;0.90;;;;;;;13.06;100.00;100219.41;10143581;29;20449;-70
2020/12/22 04:53:33;;;;;;;1.10;0.70;;;;;;;13.12;100.00;100223.50;10132368;29;20056;-70
2020/12/22 04:58:35;;;;;;;1.65;0.57;;;;;;;13.09;100.00;100223.69;10140457;29;20059;-70
2020/12/22 05:03:37;;;;;;;1.42;0.50;;;;;;;13.11;100.00;100227.09;10142659;29;20047;-71
2020/12/22 05:08:38;;;;;;;2.85;0.60;;;;;;;13.14;100.00;100216.38;10140867;29;20434;-70
2020/12/22 05:13:40;;;;;;;0.82;0.40;;;;;;;12.99;100.00;100217.25;10142025;29;20401;-70
2020/12/22 05:18:41;;;;;;;2.00;0.82;;;;;;;12.95;100.00;100237.75;10123142;29;20045;-70
2020/12/22 05:23:54;;;;;;;2.88;0.60;;;;;;;12.93;100.00;100253.69;10141788;29;20048;-70
2020/12/22 05:28:56;;;;;;;0.95;0.52;;;;;;;13.01;100.00;100247.94;10142025;29;20048;-70
2020/12/22 05:33:57;;;;;;;1.42;0.60;;;;;;;13.05;100.00;100252.13;10141344;29;20056;-70
2020/12/22 05:38:59;;;;;;;0.90;0.40;;;;;;;12.93;100.00;100256.34;10141318;29;20056;-70
2020/12/22 05:44:00;;;;;;;0.80;0.60;;;;;;;12.90;100.00;100255.66;10139390;29;20045;-71
2020/12/22 05:49:03;;;;;;;1.45;0.50;;;;;;;13.13;100.00;100272.81;10140676;29;20382;-71
2020/12/22 05:54:14;;;;;;;2.40;1.40;;;;;;;13.21;100.00;100267.94;10141135;29;20053;-70
2020/12/22 05:59:19;;;;;;;0.40;0.40;;;;;;;13.22;100.00;100274.94;10140470;29;20052;-70
2020/12/22 06:04:21;;;;;;;1.13;0.65;;;;;;;13.22;100.00;100267.00;10140844;29;20049;-70
2020/12/22 06:09:22;;;;;;;0.90;0.50;;;;;;;13.25;100.00;100282.69;10139206;29;20048;-70
2020/12/22 06:14:24;;;;;;;1.30;0.77;;;;;;;13.31;100.00;100284.94;10139626;29;20109;-70
2020/12/22 06:19:26;;;;;;;1.45;0.73;;;;;;;13.20;100.00;100282.97;10139635;29;20136;-70
2020/12/22 06:24:34;;;;;;;1.63;0.75;;;;;;;13.20;100.00;100301.50;10138598;29;20096;-71
2020/12/22 06:29:40;;;;;;;1.23;0.70;;;;;;;13.20;100.00;100311.22;10139348;29;20044;-70
2020/12/22 06:34:41;;;;;;;1.13;0.80;;;;;;;13.10;100.00;100321.44;10138739;29;20052;-70
2020/12/22 06:39:49;;;;;;;1.38;0.70;;;;;;;13.08;100.00;100331.25;10137810;29;20108;-70
2020/12/22 06:44:51;;;;;;;1.27;1.00;;;;;;;13.02;100.00;100347.50;10137735;29;20078;-70
2020/12/22 06:49:53;;;;;;;2.67;0.82;;;;;;;12.97;100.00;100376.03;10138803;29;20049;-70
2020/12/22 06:54:56;;;;;;;2.53;1.23;;;;;;;13.07;100.00;100374.53;10138209;29;20040;-70
2020/12/22 06:59:57;;;;;;;2.63;0.98;;;;;;;13.10;100.00;100370.84;10137510;29;20386;-70
2020/12/22 07:05:06;;;;;;;3.08;0.90;;;;;;;13.22;100.00;100370.19;10137628;29;20445;-71
2020/12/22 07:10:10;;;;;;;3.88;1.10;;;;;;;13.37;100.00;100357.84;10105640;29;20103;-70
2020/12/22 07:15:12;;;;;;;3.90;1.30;;;;;;;13.47;100.00;100346.63;10136832;29;20111;-70
2020/12/22 07:20:13;;;;;;;2.13;1.30;;;;;;;13.38;100.00;100347.16;10120217;29;20047;-70
2020/12/22 07:25:15;;;;;;;3.40;1.52;;;;;;;13.24;100.00;100355.91;10137124;29;20128;-70
2020/12/22 07:30:17;;;;;;;2.50;1.17;;;;;;;13.21;100.00;100364.03;10137047;29;20093;-70
2020/12/22 07:35:19;;;;;;;2.20;1.25;;;;;;;13.22;100.00;100370.19;10134269;29;20084;-70
2020/12/22 07:40:27;;;;;;;3.35;1.90;;;;;;;13.28;100.00;100375.09;10132883;29;20041;-70
2020/12/22 07:45:29;;;;;;;1.48;1.02;;;;;;;13.42;100.00;100374.28;10135512;29;20497;-70
2020/12/22 07:50:30;;;;;;;2.50;1.20;;;;;;;13.39;100.00;100377.94;10136318;29;20040;-70
2020/12/22 07:55:40;;;;;;;3.72;1.50;;;;;;;13.28;100.00;100378.59;10136798;29;20068;-70
2020/12/22 08:00:42;;;;;;;2.83;1.85;;;;;;;13.22;100.00;100397.47;10120963;29;20127;-71
2020/12/22 08:05:56;;;;;;;4.47;1.48;;;;;;;13.31;100.00;100419.88;10134249;29;20048;-70
2020/12/22 08:10:57;;;;;;;2.97;1.70;;;;;;;13.31;100.00;100411.94;10135221;29;20048;-70
2020/12/22 08:15:59;;;;;;;2.55;1.70;;;;;;;13.28;100.00;100435.94;10134833;29;20052;-71
2020/12/22 08:21:01;;;;;;;3.88;2.40;;;;;;;13.19;100.00;100437.34;10134820;29;20478;-71
2020/12/22 08:26:04;;;;;;;3.13;1.70;;;;;;;13.06;100.00;100460.09;10118705;29;20048;-70
2020/12/22 08:31:12;;;;;;;3.47;1.40;;;;;;;12.93;100.00;100467.88;10119354;29;20053;-70
2020/12/22 08:36:13;;;;;;;4.05;1.73;;;;;;;12.96;100.00;100497.75;10135234;29;20135;-70
2020/12/22 08:41:17;;;;;;;4.60;1.92;;;;;;;13.21;100.00;100504.25;10133984;29;20048;-70
2020/12/22 08:46:20;;;;;;;2.70;1.33;;;;;;;13.39;100.00;100504.13;10105247;29;20049;-70
2020/12/22 08:51:26;;;;;;;1.65;1.20;;;;;;;13.51;100.00;100501.63;10128252;29;20537;-70
2020/12/22 08:56:27;;;;;;;2.60;1.48;;;;;;;13.44;100.00;100467.66;10134457;29;20378;-70
2020/12/22 09:01:43;;;;;;;2.75;1.30;;;;;;;13.49;100.00;100481.47;10131535;29;20048;-71
2020/12/22 09:06:46;;;;;;;2.75;1.20;;;;;;;13.54;100.00;100477.63;10113563;29;20049;-70
2020/12/22 09:11:48;;;;;;;2.83;1.40;;;;;;;13.85;100.00;100475.81;10132209;29;20051;-69
2020/12/22 09:16:57;;;;;;;2.40;1.38;;;;;;;13.89;100.00;100490.59;10135479;29;20072;-69
2020/12/22 09:22:00;;;;;;;2.20;1.10;;;;;;;14.17;100.00;100495.06;10141016;29;20068;-69
2020/12/22 09:27:06;;;;;;;1.77;1.20;;;;;;;14.25;100.00;100483.03;10140519;29;20198;-69
2020/12/22 09:32:10;;;;;;;3.55;1.25;;;;;;;13.83;100.00;100490.94;10132765;29;20603;-69
2020/12/22 09:37:11;;;;;;;4.53;1.70;;;;;;;13.94;100.00;100499.94;10140117;29;20040;-69
2020/12/22 09:42:13;;;;;;;6.10;2.78;;;;;;;14.01;100.00;100519.81;10140560;29;20052;-69
2020/12/22 09:47:15;;;;;;;7.07;2.53;;;;;;;13.86;100.00;100531.34;10140398;29;20096;-68
2020/12/22 09:52:16;;;;;;;3.95;2.20;;;;;;;13.76;100.00;100547.84;10140065;29;20049;-69
2020/12/22 09:57:17;;;;;;;2.63;1.63;;;;;;;13.46;100.00;100550.47;10136781;29;20057;-69
2020/12/22 10:02:18;;;;;;;3.45;2.08;;;;;;;13.60;100.00;100580.50;10139079;29;20047;-69
2020/12/22 10:07:20;;;;;;;3.22;1.50;;;;;;;14.01;100.00;100583.41;10109577;29;20063;-69
2020/12/22 10:12:22;;;;;;;5.05;1.90;;;;;;;15.44;100.00;100571.03;10132420;29;20033;-70
2020/12/22 10:17:23;;;;;;;2.97;1.45;;;;;;;16.31;100.00;100555.44;10133846;29;20060;-69
2020/12/22 10:22:24;;;;;;;2.65;1.20;;;;;;;15.49;100.00;100529.94;10136792;29;20056;-70
2020/12/22 10:27:25;;;;;;;3.13;1.40;;;;;;;17.72;100.00;100573.75;10136311;29;20037;-69
2020/12/22 10:32:26;;;;;;;4.38;1.30;;;;;;;18.06;100.00;100553.41;10133131;29;20493;-69
2020/12/22 10:37:27;;;;;;;3.63;1.20;;;;;;;18.38;97.26;100543.75;10136925;29;20053;-69
2020/12/22 10:42:28;;;;;;;3.20;1.20;;;;;;;18.30;92.06;100537.31;10138233;29;20048;-69
2020/12/22 10:47:30;;;;;;;2.92;1.00;;;;;;;18.03;91.38;100522.47;10136643;29;20048;-69
2020/12/22 10:52:31;;;;;;;2.38;1.30;;;;;;;19.38;85.15;100542.88;10137771;29;20053;-69
2020/12/22 10:57:33;;;;;;;2.88;1.17;;;;;;;19.00;87.79;100551.31;10137584;29;20052;-69
2020/12/22 11:02:34;;;;;;;3.00;0.95;;;;;;;19.61;84.67;100557.91;10136893;29;20660;-69
2020/12/22 11:07:42;;;;;;;1.85;0.90;;;;;;;19.63;86.03;100568.47;10120511;29;20104;-69
2020/12/22 11:12:43;;;;;;;2.72;1.50;;;;;;;19.48;85.96;100553.72;10137657;29;20052;-69
2020/12/22 11:17:44;;;;;;;3.00;1.10;;;;;;;19.94;82.09;100554.25;10119468;29;20068;-70
2020/12/22 11:22:47;;;;;;;3.47;1.40;;;;;;;20.37;80.28;100558.66;10135806;29;20045;-69
2020/12/22 11:27:49;;;;;;;3.58;1.38;;;;;;;21.93;71.27;100551.78;10136744;29;20048;-69
2020/12/22 11:32:50;;;;;;;2.05;0.88;;;;;;;18.61;85.07;100530.47;10136380;29;20389;-69
2020/12/22 11:37:51;;;;;;;4.85;1.20;;;;;;;16.39;100.00;100518.56;10134727;29;20049;-69
2020/12/22 11:42:53;;;;;;;2.67;0.95;;;;;;;17.17;96.90;100542.25;10135025;29;20072;-70
2020/12/22 11:47:54;;;;;;;1.48;0.90;;;;;;;16.19;100.00;100527.91;10110297;29;20048;-69
2020/12/22 11:52:55;;;;;;;2.05;1.00;;;;;;;15.32;100.00;100542.59;10132350;29;20048;-69
2020/12/22 11:58:07;;;;;;;3.65;1.00;;;;;;;14.69;100.00;100551.06;10134385;29;20548;-69
2020/12/22 12:03:08;;;;;;;3.40;1.27;;;;;;;14.58;100.00;100575.56;10133946;29;20044;-68
2020/12/22 12:08:09;;;;;;;4.45;1.75;;;;;;;14.50;100.00;100583.16;10133694;29;20071;-68
2020/12/22 12:13:10;;;;;;;2.05;1.00;;;;;;;14.35;100.00;100576.94;10133870;29;20446;-68
2020/12/22 12:18:11;;;;;;;2.13;1.20;;;;;;;14.35;100.00;100581.41;10124298;29;20056;-68
2020/12/22 12:23:12;;;;;;;2.08;1.10;;;;;;;14.24;100.00;100603.22;10121069;29;20051;-68
2020/12/22 12:28:26;;;;;;;3.25;1.30;;;;;;;14.23;100.00;100601.53;10133969;29;20080;-68
2020/12/22 12:33:27;;;;;;;2.28;1.40;;;;;;;14.20;100.00;100622.91;10129902;29;20060;-69
2020/12/22 12:38:28;;;;;;;4.40;1.35;;;;;;;14.19;100.00;100628.31;10131034;29;20537;-69
2020/12/22 12:43:30;;;;;;;3.53;1.15;;;;;;;14.13;100.00;100624.22;10131292;29;20062;-69
2020/12/22 12:48:32;;;;;;;3.40;1.30;;;;;;;14.07;100.00;100620.13;10130035;29;20037;-69
2020/12/22 12:53:33;;;;;;;2.50;1.10;;;;;;;14.06;100.00;100631.66;10138053;29;20045;-69
2020/12/22 12:58:45;;;;;;;2.85;1.20;;;;;;;14.03;100.00;100633.66;10141691;29;20048;-69
2020/12/22 13:03:51;;;;;;;3.53;1.67;;;;;;;13.80;100.00;100629.69;10141325;29;20045;-69
2020/12/22 13:08:52;;;;;;;3.08;1.25;;;;;;;14.22;100.00;100641.38;10141508;29;20096;-69
2020/12/22 13:13:53;;;;;;;3.95;1.30;;;;;;;14.52;100.00;100658.16;10141672;29;20040;-69
2020/12/22 13:18:55;;;;;;;3.65;1.85;;;;;;;14.42;100.00;100647.22;10124982;29;20059;-69
2020/12/22 13:23:56;;;;;;;4.55;1.50;;;;;;;13.95;100.00;100622.66;10140065;29;20059;-69
2020/12/22 13:29:06;;;;;;;2.25;1.33;;;;;;;13.87;100.00;100636.34;10106206;29;20096;-69
2020/12/22 13:34:07;;;;;;;3.13;1.40;;;;;;;13.71;100.00;100648.75;10141495;29;20489;-69
2020/12/22 13:39:08;;;;;;;3.88;1.50;;;;;;;13.65;100.00;100654.34;10123363;29;20482;-69
2020/12/22 13:44:09;;;;;;;3.85;1.48;;;;;;;13.58;100.00;100651.19;10140048;29;20045;-69
2020/12/22 13:49:11;;;;;;;2.90;1.20;;;;;;;13.58;100.00;100660.94;10140649;29;20492;-69
2020/12/22 13:54:12;;;;;;;3.25;1.50;;;;;;;13.60;100.00;100672.31;10140109;29;20508;-69
2020/12/22 13:59:28;;;;;;;3.42;1.50;;;;;;;13.40;100.00;100672.53;10140192;29;20045;-69
2020/12/22 14:04:34;;;;;;;2.92;1.45;;;;;;;13.21;100.00;100675.34;10122642;29;20056;-69
2020/12/22 14:09:35;;;;;;;4.22;1.70;;;;;;;13.16;100.00;100672.06;10138298;29;20454;-69
2020/12/22 14:14:36;;;;;;;3.38;2.10;;;;;;;13.25;100.00;100688.31;10139346;29;20489;-69
2020/12/22 14:19:38;;;;;;;2.70;1.40;;;;;;;13.17;100.00;100694.94;10138730;29;20041;-69
2020/12/22 14:24:39;;;;;;;4.72;2.00;;;;;;;13.13;100.00;100702.22;10138092;29;20052;-69
2020/12/22 14:29:51;;;;;;;5.03;2.22;;;;;;;13.17;100.00;100708.19;10139208;29;20068;-69
2020/12/22 14:34:52;;;;;;;4.45;2.33;;;;;;;13.18;100.00;100709.91;10139424;29;20061;-69
2020/12/22 14:39:53;;;;;;;3.17;1.40;;;;;;;13.00;100.00;100711.69;10137361;29;20048;-69
2020/12/22 14:44:54;;;;;;;3.75;1.50;;;;;;;13.03;100.00;100708.88;10138111;29;20135;-69
2020/12/22 14:49:55;;;;;;;4.13;1.90;;;;;;;13.03;100.00;100690.38;10135270;29;20059;-69
2020/12/22 14:54:56;;;;;;;2.92;1.30;;;;;;;12.92;100.00;100698.00;10134241;29;20076;-69
2020/12/22 15:00:13;;;;;;;2.20;1.35;;;;;;;12.93;100.00;100690.00;10114028;29;20063;-69
2020/12/22 15:05:14;;;;;;;6.32;1.60;;;;;;;12.90;100.00;100686.66;10135317;29;20068;-69
2020/12/22 15:10:15;;;;;;;2.75;1.60;;;;;;;12.91;100.00;100701.59;10119542;29;20044;-69
2020/12/22 15:15:16;;;;;;;4.80;1.40;;;;;;;12.88;100.00;100705.28;10132951;29;20053;-69
2020/12/22 15:20:19;;;;;;;2.50;1.23;;;;;;;12.87;100.00;100708.84;10135634;29;20119;-69
2020/12/22 15:25:20;;;;;;;3.03;1.20;;;;;;;12.89;100.00;100701.66;10119797;29;20052;-69
2020/12/22 15:30:26;;;;;;;2.30;1.20;;;;;;;12.93;100.00;100694.44;10136294;29;20055;-69
2020/12/22 15:35:27;;;;;;;3.97;1.95;;;;;;;12.93;100.00;100694.44;10136821;29;20056;-68
2020/12/22 15:40:28;;;;;;;4.00;1.58;;;;;;;12.96;100.00;100693.44;10135287;29;20046;-69
2020/12/22 15:45:30;;;;;;;4.60;1.75;;;;;;;12.93;100.00;100695.28;10134713;29;20041;-69
2020/12/22 15:50:31;;;;;;;3.63;1.40;;;;;;;12.97;100.00;100689.84;10133705;29;20033;-68
2020/12/22 15:55:32;;;;;;;4.03;1.90;;;;;;;12.93;100.00;100687.34;10135492;29;20052;-69
2020/12/22 16:00:47;;;;;;;3.88;1.80;;;;;;;12.91;100.00;100701.59;10118916;29;20045;-69
2020/12/22 16:05:48;;;;;;;4.68;2.03;;;;;;;12.84;100.00;100713.41;10133922;29;20043;-69
2020/12/22 16:10:49;;;;;;;4.22;2.08;;;;;;;12.69;100.00;100715.06;10124311;29;20048;-69
2020/12/22 16:15:50;;;;;;;5.82;2.05;;;;;;;12.63;100.00;100714.53;10126110;29;20055;-69
2020/12/22 16:20:52;;;;;;;3.70;1.58;;;;;;;12.65;100.00;100726.72;10128676;29;20037;-69
2020/12/22 16:25:53;;;;;;;3.45;1.90;;;;;;;12.65;100.00;100720.56;10128567;29;20056;-69
2020/12/22 16:31:03;;;;;;;37.78;30.95;;;;;;;12.35;100.00;100721.19;10130320;29;20049;-69
2020/12/22 16:36:05;;;;;;;18.60;16.92;;;;;;;12.26;100.00;100737.50;10134237;29;20434;-69
2020/12/22 16:41:06;;;;;;;99.50;68.80;;;;;;;12.14;100.00;100732.81;10134222;29;20037;-69
2020/12/22 16:46:08;;;;;;;18.92;17.33;;;;;;;12.25;100.00;100756.91;10133710;29;20489;-69
2020/12/22 16:51:12;;;;;;;10.55;9.65;;;;;;;12.23;100.00;100764.06;10134318;29;20041;-69
2020/12/22 16:56:13;;;;;;;7.00;5.50;;;;;;;12.16;100.00;100766.16;10116452;29;20052;-69
2020/12/22 17:01:23;;;;;;;5.82;4.47;;;;;;;12.06;100.00;100761.38;10147131;29;20533;-69
2020/12/22 17:06:33;;;;;;;9.55;8.75;;;;;;;12.14;100.00;100777.69;10117608;29;20056;-69
2020/12/22 17:11:34;;;;;;;8.30;7.40;;;;;;;12.02;100.00;100784.44;10133798;29;20049;-69
2020/12/22 17:16:35;;;;;;;7.60;4.80;;;;;;;12.04;100.00;100790.50;10133802;29;20048;-69
2020/12/22 17:21:37;;;;;;;7.88;4.88;;;;;;;11.97;100.00;100791.72;10132790;29;20045;-69
2020/12/22 17:26:39;;;;;;;5.93;4.13;;;;;;;11.73;100.00;100798.94;10133080;29;20053;-69
2020/12/22 17:31:40;;;;;;;20.08;18.17;;;;;;;11.78;100.00;100814.63;10133518;29;20068;-69
2020/12/22 17:36:41;;;;;;;89.22;61.22;;;;;;;11.75;100.00;100817.41;10134773;29;20055;-69
2020/12/22 17:41:42;;;;;;;28.55;21.02;;;;;;;11.76;100.00;100814.69;10139581;29;20059;-70
2020/12/22 17:46:44;;;;;;;25.35;20.17;;;;;;;11.61;100.00;100822.41;10122129;29;20048;-70
2020/12/22 17:51:45;;;;;;;14.18;11.43;;;;;;;11.64;100.00;100831.03;10138416;29;20055;-70
2020/12/22 17:56:47;;;;;;;8.73;6.50;;;;;;;11.69;100.00;100849.31;10138342;29;20052;-70
2020/12/22 18:01:59;;;;;;;4.95;2.58;;;;;;;11.74;100.00;100853.50;10138885;29;20127;-72
2020/12/22 18:07:00;;;;;;;4.25;2.45;;;;;;;11.84;100.00;100867.13;10121292;29;20120;-69
2020/12/22 18:12:01;;;;;;;4.40;2.47;;;;;;;11.90;100.00;100877.41;10138017;29;20493;-70
2020/12/22 18:17:02;;;;;;;5.53;3.80;;;;;;;11.90;100.00;100863.34;10139194;29;20056;-70
2020/12/22 18:22:03;;;;;;;5.78;4.10;;;;;;;11.92;100.00;100866.78;10155753;29;20099;-70
2020/12/22 18:27:04;;;;;;;7.35;5.38;;;;;;;11.86;100.00;100856.50;10176439;29;20499;-70
2020/12/22 18:32:11;;;;;;;6.03;4.40;;;;;;;11.81;100.00;100869.91;10139895;29;20061;-71
2020/12/22 18:37:13;;;;;;;7.88;5.75;;;;;;;11.75;100.00;100863.13;10137350;29;20044;-70
2020/12/22 18:42:15;;;;;;;9.88;4.85;;;;;;;11.64;100.00;100860.06;10139027;29;20405;-70
2020/12/22 18:47:16;;;;;;;27.02;17.67;;;;;;;11.59;100.00;100862.06;10137907;29;20052;-70
2020/12/22 18:52:18;;;;;;;45.00;32.08;;;;;;;11.66;100.00;100881.13;10136820;29;20040;-70
2020/12/22 18:57:19;;;;;;;14.90;12.52;;;;;;;11.66;100.00;100881.13;10137811;29;20504;-70
2020/12/22 19:02:33;;;;;;;11.15;10.05;;;;;;;11.78;100.00;100894.69;10138585;29;20056;-70
2020/12/22 19:07:34;;;;;;;8.52;7.15;;;;;;;11.75;100.00;100897.44;10136206;29;20041;-70
2020/12/22 19:12:35;;;;;;;7.50;5.45;;;;;;;11.83;100.00;100896.25;10138214;29;20387;-70
2020/12/22 19:17:36;;;;;;;8.35;6.70;;;;;;;11.96;100.00;100890.34;10121249;29;20053;-70
2020/12/22 19:22:37;;;;;;;7.57;5.82;;;;;;;11.85;100.00;100873.28;10135993;29;20048;-70
2020/12/22 19:27:38;;;;;;;9.60;6.03;;;;;;;11.88;100.00;100875.78;10137246;29;20048;-70
2020/12/22 19:32:55;;;;;;;7.45;5.20;;;;;;;11.91;100.00;100873.84;10137104;29;20061;-70
2020/12/22 19:37:56;;;;;;;9.80;7.95;;;;;;;11.76;100.00;100866.63;10135994;29;20048;-70
2020/12/22 19:42:57;;;;;;;14.65;10.15;;;;;;;11.73;100.00;100872.84;10137073;29;20485;-70
2020/12/22 19:47:58;;;;;;;12.82;10.90;;;;;;;11.84;100.00;100882.97;10136383;29;20398;-70
2020/12/22 19:53:00;;;;;;;15.85;12.38;;;;;;;11.78;100.00;100902.59;10135753;29;20060;-70
2020/12/22 19:58:01;;;;;;;13.23;10.57;;;;;;;11.82;100.00;100928.84;10119308;29;20056;-70
2020/12/22 20:03:08;;;;;;;16.23;11.02;;;;;;;11.80;100.00;100926.25;10119025;29;20041;-71
2020/12/22 20:08:10;;;;;;;17.23;14.00;;;;;;;11.78;100.00;100947.47;10127732;29;20047;-71
2020/12/22 20:13:11;;;;;;;14.77;10.85;;;;;;;11.73;100.00;100941.47;10132046;29;20075;-71
2020/12/22 20:18:12;;;;;;;15.13;12.27;;;;;;;11.69;100.00;100941.69;10100530;29;20057;-70
2020/12/22 20:23:13;;;;;;;16.95;13.43;;;;;;;11.66;100.00;100942.69;10127882;29;20067;-70
2020/12/22 20:28:14;;;;;;;15.60;12.23;;;;;;;11.57;100.00;100924.59;10135892;29;20051;-70
2020/12/22 20:33:29;;;;;;;12.55;10.27;;;;;;;11.58;100.00;100921.03;10135700;29;20453;-70
2020/12/22 20:38:31;;;;;;;12.57;10.80;;;;;;;11.65;100.00;100926.91;10134774;29;20041;-70
2020/12/22 20:43:33;;;;;;;14.65;11.50;;;;;;;11.64;100.00;100941.03;10132759;29;20464;-70
2020/12/22 20:48:35;;;;;;;13.68;11.27;;;;;;;11.66;100.00;100932.13;10135424;29;20052;-70
2020/12/22 20:53:36;;;;;;;11.45;10.00;;;;;;;11.61;100.00;100915.63;10134536;29;20041;-70
2020/12/22 20:58:38;;;;;;;16.33;11.93;;;;;;;11.52;100.00;100921.31;10134988;29;20127;-70
2020/12/22 21:03:46;;;;;;;14.93;12.30;;;;;;;11.50;100.00;100938.97;10134663;29;20040;-70
2020/12/22 21:08:47;;;;;;;17.60;12.85;;;;;;;11.52;100.00;100934.50;10133731;29;20060;-71
2020/12/22 21:13:48;;;;;;;15.60;12.55;;;;;;;11.41;100.00;100934.09;10124328;29;20053;-70
2020/12/22 21:18:50;;;;;;;12.48;9.55;;;;;;;11.43;100.00;100934.03;10119395;29;20040;-71
2020/12/22 21:23:51;;;;;;;13.82;11.15;;;;;;;11.43;100.00;100945.44;10138019;29;20041;-71
2020/12/22 21:28:52;;;;;;;15.10;11.65;;;;;;;11.35;100.00;100937.00;10138271;29;20044;-71
2020/12/22 21:34:05;;;;;;;13.90;10.73;;;;;;;11.29;100.00;100935.50;10139596;29;20081;-71
2020/12/22 21:39:07;;;;;;;14.00;11.60;;;;;;;11.24;100.00;100945.34;10138864;29;20041;-70
2020/12/22 21:44:08;;;;;;;14.43;11.18;;;;;;;11.14;100.00;100940.50;10140495;29;20040;-70
2020/12/22 21:49:10;;;;;;;14.35;11.07;;;;;;;11.07;100.00;100926.72;10140215;29;20052;-70
2020/12/22 21:54:11;;;;;;;14.27;11.05;;;;;;;11.06;100.00;100932.94;10137950;29;20049;-70
2020/12/22 21:59:12;;;;;;;13.45;10.43;;;;;;;11.08;100.00;100953.97;10142830;29;20553;-71
2020/12/22 22:04:25;;;;;;;16.10;12.55;;;;;;;11.08;100.00;100951.31;10138287;29;20044;-71
2020/12/22 22:09:26;;;;;;;13.57;11.02;;;;;;;11.19;100.00;100955.25;10121757;29;20063;-71
2020/12/22 22:14:27;;;;;;;15.02;12.70;;;;;;;11.19;100.00;100951.75;10127619;29;20056;-71
2020/12/22 22:19:28;;;;;;;15.70;12.32;;;;;;;11.10;100.00;100936.31;10138780;29;20040;-71
2020/12/22 22:24:29;;;;;;;14.98;10.57;;;;;;;11.18;100.00;100944.75;10138820;29;20048;-70
2020/12/22 22:29:30;;;;;;;15.68;11.00;;;;;;;11.20;100.00;100948.19;10138890;29;20052;-71
2020/12/22 22:34:42;;;;;;;12.07;10.80;;;;;;;11.19;100.00;100946.47;10138244;29;20565;-70
2020/12/22 22:39:43;;;;;;;12.45;10.18;;;;;;;11.15;100.00;100952.78;10137066;29;20041;-70
2020/12/22 22:44:48;;;;;;;;;;;;;;;11.17;100.00;100962.34;10137144;29;20049;-71
2020/12/22 22:49:49;;;;;;;15.88;11.27;;;;;;;11.19;100.00;100972.84;10137196;29;19924;-70